sensor_id;sensor_type;location;lat;lon;timestamp;temperature;humidity
69715;HTU21D;56981;53.532;49.398;2022-11-06T00:00:34;3.02;90.39
69715;HTU21D;56981;53.532;49.398;2022-11-06T00:03:00;3.01;90.30
69715;HTU21D;56981;53.532;49.398;2022-11-06T00:05:27;3.02;90.11
69715;HTU21D;56981;53.532;49.398;2022-11-06T00:08:11;3.04;90.50
69715;HTU21D;56981;53.532;49.398;2022-11-06T00:10:37;3.04;90.23
69715;HTU21D;56981;53.532;49.398;2022-11-06T00:13:04;3.02;89.96
69715;HTU21D;56981;53.532;49.398;2022-11-06T00:15:31;3.02;90.40
69715;HTU21D;56981;53.532;49.398;2022-11-06T00:17:58;3.00;90.28
69715;HTU21D;56981;53.532;49.398;2022-11-06T00:20:24;3.00;90.80
69715;HTU21D;56981;53.532;49.398;2022-11-06T00:22:50;3.03;90.41
69715;HTU21D;56981;53.532;49.398;2022-11-06T00:25:16;2.99;90.42
69715;HTU21D;56981;53.532;49.398;2022-11-06T00:27:42;2.98;90.44
69715;HTU21D;56981;53.532;49.398;2022-11-06T00:30:09;2.98;90.41
69715;HTU21D;56981;53.532;49.398;2022-11-06T00:32:39;2.95;90.37
69715;HTU21D;56981;53.532;49.398;2022-11-06T00:35:05;2.90;90.44
69715;HTU21D;56981;53.532;49.398;2022-11-06T00:37:33;2.88;90.57
69715;HTU21D;56981;53.532;49.398;2022-11-06T00:39:59;2.87;90.76
69715;HTU21D;56981;53.532;49.398;2022-11-06T00:42:25;2.90;91.03
69715;HTU21D;56981;53.532;49.398;2022-11-06T00:44:51;2.89;90.50
69715;HTU21D;56981;53.532;49.398;2022-11-06T00:47:18;2.88;90.69
69715;HTU21D;56981;53.532;49.398;2022-11-06T00:49:44;2.82;90.66
69715;HTU21D;56981;53.532;49.398;2022-11-06T00:52:10;2.81;90.70
69715;HTU21D;56981;53.532;49.398;2022-11-06T00:54:35;2.78;90.61
69715;HTU21D;56981;53.532;49.398;2022-11-06T00:57:02;2.80;90.92
69715;HTU21D;56981;53.532;49.398;2022-11-06T00:59:28;2.79;90.73
69715;HTU21D;56981;53.532;49.398;2022-11-06T01:01:54;2.82;90.52
69715;HTU21D;56981;53.532;49.398;2022-11-06T01:04:21;2.83;90.64
69715;HTU21D;56981;53.532;49.398;2022-11-06T01:06:50;2.82;90.64
69715;HTU21D;56981;53.532;49.398;2022-11-06T01:09:19;2.80;90.53
69715;HTU21D;56981;53.532;49.398;2022-11-06T01:11:49;2.80;90.57
69715;HTU21D;56981;53.532;49.398;2022-11-06T01:14:17;2.76;90.59
69715;HTU21D;56981;53.532;49.398;2022-11-06T01:16:43;2.76;90.58
69715;HTU21D;56981;53.532;49.398;2022-11-06T01:19:14;2.76;90.66
69715;HTU21D;56981;53.532;49.398;2022-11-06T01:21:42;2.76;90.69
69715;HTU21D;56981;53.532;49.398;2022-11-06T01:24:11;2.76;90.71
69715;HTU21D;56981;53.532;49.398;2022-11-06T01:26:38;2.75;90.80
69715;HTU21D;56981;53.532;49.398;2022-11-06T01:29:07;2.76;90.54
69715;HTU21D;56981;53.532;49.398;2022-11-06T01:31:34;2.76;90.54
69715;HTU21D;56981;53.532;49.398;2022-11-06T01:34:01;2.76;90.53
69715;HTU21D;56981;53.532;49.398;2022-11-06T01:36:27;2.79;90.28
69715;HTU21D;56981;53.532;49.398;2022-11-06T01:38:56;2.82;90.59
69715;HTU21D;56981;53.532;49.398;2022-11-06T01:41:25;2.83;90.67
69715;HTU21D;56981;53.532;49.398;2022-11-06T01:43:54;2.85;90.03
69715;HTU21D;56981;53.532;49.398;2022-11-06T01:46:22;2.85;90.03
69715;HTU21D;56981;53.532;49.398;2022-11-06T01:48:52;2.88;90.08
69715;HTU21D;56981;53.532;49.398;2022-11-06T01:51:19;2.90;90.00
69715;HTU21D;56981;53.532;49.398;2022-11-06T01:53:46;2.93;89.83
69715;HTU21D;56981;53.532;49.398;2022-11-06T01:56:13;2.89;90.02
69715;HTU21D;56981;53.532;49.398;2022-11-06T01:58:42;2.88;90.21
69715;HTU21D;56981;53.532;49.398;2022-11-06T02:01:09;2.90;90.17
69715;HTU21D;56981;53.532;49.398;2022-11-06T02:03:36;2.91;89.65
69715;HTU21D;56981;53.532;49.398;2022-11-06T02:06:03;2.91;89.73
69715;HTU21D;56981;53.532;49.398;2022-11-06T02:08:30;2.90;89.50
69715;HTU21D;56981;53.532;49.398;2022-11-06T02:10:56;2.96;89.54
69715;HTU21D;56981;53.532;49.398;2022-11-06T02:16:26;2.99;89.34
69715;HTU21D;56981;53.532;49.398;2022-11-06T02:27:14;2.93;89.68
69715;HTU21D;56981;53.532;49.398;2022-11-06T02:29:59;2.91;89.75
69715;HTU21D;56981;53.532;49.398;2022-11-06T02:32:49;2.94;89.93
69715;HTU21D;56981;53.532;49.398;2022-11-06T02:36:04;2.93;89.62
69715;HTU21D;56981;53.532;49.398;2022-11-06T02:38:37;2.91;90.01
69715;HTU21D;56981;53.532;49.398;2022-11-06T02:41:07;2.88;90.07
69715;HTU21D;56981;53.532;49.398;2022-11-06T02:43:38;2.87;90.09
69715;HTU21D;56981;53.532;49.398;2022-11-06T02:46:31;2.90;90.44
69715;HTU21D;56981;53.532;49.398;2022-11-06T02:49:07;2.90;90.40
69715;HTU21D;56981;53.532;49.398;2022-11-06T02:51:38;2.95;90.34
69715;HTU21D;56981;53.532;49.398;2022-11-06T02:54:06;2.95;90.14
69715;HTU21D;56981;53.532;49.398;2022-11-06T02:56:36;2.95;90.04
69715;HTU21D;56981;53.532;49.398;2022-11-06T03:02:00;3.04;89.85
69715;HTU21D;56981;53.532;49.398;2022-11-06T03:04:33;3.00;89.73
69715;HTU21D;56981;53.532;49.398;2022-11-06T03:07:35;2.94;90.09
69715;HTU21D;56981;53.532;49.398;2022-11-06T03:10:02;2.93;90.27
69715;HTU21D;56981;53.532;49.398;2022-11-06T03:12:41;2.91;90.66
69715;HTU21D;56981;53.532;49.398;2022-11-06T03:22:51;3.09;89.87
69715;HTU21D;56981;53.532;49.398;2022-11-06T03:25:23;3.05;89.95
69715;HTU21D;56981;53.532;49.398;2022-11-06T03:30:39;3.02;89.86
69715;HTU21D;56981;53.532;49.398;2022-11-06T03:33:23;3.01;90.39
69715;HTU21D;56981;53.532;49.398;2022-11-06T03:36:02;3.00;89.98
69715;HTU21D;56981;53.532;49.398;2022-11-06T03:38:37;2.94;90.13
69715;HTU21D;56981;53.532;49.398;2022-11-06T03:41:13;2.96;90.18
69715;HTU21D;56981;53.532;49.398;2022-11-06T03:43:42;2.97;90.15
69715;HTU21D;56981;53.532;49.398;2022-11-06T03:46:16;2.94;90.18
69715;HTU21D;56981;53.532;49.398;2022-11-06T03:49:18;2.96;90.31
69715;HTU21D;56981;53.532;49.398;2022-11-06T03:51:50;2.99;90.43
69715;HTU21D;56981;53.532;49.398;2022-11-06T03:54:34;3.01;90.41
69715;HTU21D;56981;53.532;49.398;2022-11-06T03:57:25;2.99;90.21
69715;HTU21D;56981;53.532;49.398;2022-11-06T03:59:56;2.97;90.10
69715;HTU21D;56981;53.532;49.398;2022-11-06T04:02:24;2.96;90.08
69715;HTU21D;56981;53.532;49.398;2022-11-06T04:04:57;2.93;90.15
69715;HTU21D;56981;53.532;49.398;2022-11-06T04:07:25;2.95;90.08
69715;HTU21D;56981;53.532;49.398;2022-11-06T04:09:58;2.96;89.67
69715;HTU21D;56981;53.532;49.398;2022-11-06T04:12:44;2.90;90.04
69715;HTU21D;56981;53.532;49.398;2022-11-06T04:15:36;2.93;90.52
69715;HTU21D;56981;53.532;49.398;2022-11-06T04:18:11;2.96;89.92
69715;HTU21D;56981;53.532;49.398;2022-11-06T04:20:46;2.98;89.23
69715;HTU21D;56981;53.532;49.398;2022-11-06T04:30:09;2.91;86.90
69715;HTU21D;56981;53.532;49.398;2022-11-06T04:35:36;2.94;86.64
69715;HTU21D;56981;53.532;49.398;2022-11-06T04:38:27;2.95;85.81
69715;HTU21D;56981;53.532;49.398;2022-11-06T04:43:45;2.88;84.89
69715;HTU21D;56981;53.532;49.398;2022-11-06T04:46:19;2.84;84.68
69715;HTU21D;56981;53.532;49.398;2022-11-06T04:48:46;2.85;85.21
69715;HTU21D;56981;53.532;49.398;2022-11-06T04:51:13;2.93;84.81
69715;HTU21D;56981;53.532;49.398;2022-11-06T04:53:40;2.90;83.84
69715;HTU21D;56981;53.532;49.398;2022-11-06T04:56:12;2.96;83.52
69715;HTU21D;56981;53.532;49.398;2022-11-06T04:58:38;2.93;83.69
69715;HTU21D;56981;53.532;49.398;2022-11-06T05:01:04;2.95;83.43
69715;HTU21D;56981;53.532;49.398;2022-11-06T05:03:30;2.98;83.29
69715;HTU21D;56981;53.532;49.398;2022-11-06T05:05:56;2.87;82.58
69715;HTU21D;56981;53.532;49.398;2022-11-06T05:08:23;2.88;82.84
69715;HTU21D;56981;53.532;49.398;2022-11-06T05:10:49;2.97;83.01
69715;HTU21D;56981;53.532;49.398;2022-11-06T05:13:15;2.96;82.54
69715;HTU21D;56981;53.532;49.398;2022-11-06T05:15:41;2.99;81.92
69715;HTU21D;56981;53.532;49.398;2022-11-06T05:18:07;2.98;81.49
69715;HTU21D;56981;53.532;49.398;2022-11-06T05:20:33;2.97;82.36
69715;HTU21D;56981;53.532;49.398;2022-11-06T05:23:00;3.01;81.53
69715;HTU21D;56981;53.532;49.398;2022-11-06T05:25:37;3.13;81.60
69715;HTU21D;56981;53.532;49.398;2022-11-06T05:28:05;3.13;80.84
69715;HTU21D;56981;53.532;49.398;2022-11-06T05:30:33;3.10;81.37
69715;HTU21D;56981;53.532;49.398;2022-11-06T05:32:59;3.13;81.20
69715;HTU21D;56981;53.532;49.398;2022-11-06T05:35:25;3.23;80.76
69715;HTU21D;56981;53.532;49.398;2022-11-06T05:37:58;3.27;80.56
69715;HTU21D;56981;53.532;49.398;2022-11-06T05:40:24;3.35;80.62
69715;HTU21D;56981;53.532;49.398;2022-11-06T05:42:50;3.36;79.99
69715;HTU21D;56981;53.532;49.398;2022-11-06T05:45:16;3.39;80.97
69715;HTU21D;56981;53.532;49.398;2022-11-06T05:47:42;3.43;80.30
69715;HTU21D;56981;53.532;49.398;2022-11-06T05:50:09;3.40;79.46
69715;HTU21D;56981;53.532;49.398;2022-11-06T05:52:35;3.41;79.30
69715;HTU21D;56981;53.532;49.398;2022-11-06T05:55:02;3.36;79.19
69715;HTU21D;56981;53.532;49.398;2022-11-06T05:57:28;3.34;79.53
69715;HTU21D;56981;53.532;49.398;2022-11-06T05:59:54;3.43;79.31
69715;HTU21D;56981;53.532;49.398;2022-11-06T06:02:20;3.57;78.75
69715;HTU21D;56981;53.532;49.398;2022-11-06T06:04:46;3.60;78.80
69715;HTU21D;56981;53.532;49.398;2022-11-06T06:07:12;3.55;78.28
69715;HTU21D;56981;53.532;49.398;2022-11-06T06:09:38;3.62;79.14
69715;HTU21D;56981;53.532;49.398;2022-11-06T06:12:05;3.65;78.18
69715;HTU21D;56981;53.532;49.398;2022-11-06T06:14:31;3.70;78.16
69715;HTU21D;56981;53.532;49.398;2022-11-06T06:16:57;3.67;77.50
69715;HTU21D;56981;53.532;49.398;2022-11-06T06:19:24;3.57;77.49
69715;HTU21D;56981;53.532;49.398;2022-11-06T06:21:50;3.64;77.44
69715;HTU21D;56981;53.532;49.398;2022-11-06T06:24:16;3.75;79.24
69715;HTU21D;56981;53.532;49.398;2022-11-06T06:26:42;3.82;77.21
69715;HTU21D;56981;53.532;49.398;2022-11-06T06:29:08;3.83;75.62
69715;HTU21D;56981;53.532;49.398;2022-11-06T06:31:34;3.88;76.17
69715;HTU21D;56981;53.532;49.398;2022-11-06T06:34:00;3.92;77.11
69715;HTU21D;56981;53.532;49.398;2022-11-06T06:36:26;4.02;76.71
69715;HTU21D;56981;53.532;49.398;2022-11-06T06:38:53;4.04;75.34
69715;HTU21D;56981;53.532;49.398;2022-11-06T06:41:19;4.13;75.51
69715;HTU21D;56981;53.532;49.398;2022-11-06T06:43:49;4.14;74.76
69715;HTU21D;56981;53.532;49.398;2022-11-06T06:46:15;4.19;74.41
69715;HTU21D;56981;53.532;49.398;2022-11-06T06:48:41;4.26;73.92
69715;HTU21D;56981;53.532;49.398;2022-11-06T06:51:07;4.28;73.87
69715;HTU21D;56981;53.532;49.398;2022-11-06T06:53:34;4.33;73.99
69715;HTU21D;56981;53.532;49.398;2022-11-06T06:56:02;4.51;73.82
69715;HTU21D;56981;53.532;49.398;2022-11-06T06:58:28;4.58;73.35
69715;HTU21D;56981;53.532;49.398;2022-11-06T07:00:58;4.74;74.05
69715;HTU21D;56981;53.532;49.398;2022-11-06T07:03:24;4.88;72.24
69715;HTU21D;56981;53.532;49.398;2022-11-06T07:05:50;4.87;71.38
69715;HTU21D;56981;53.532;49.398;2022-11-06T07:08:16;4.91;71.15
69715;HTU21D;56981;53.532;49.398;2022-11-06T07:10:42;4.97;70.63
69715;HTU21D;56981;53.532;49.398;2022-11-06T07:13:08;4.83;70.94
69715;HTU21D;56981;53.532;49.398;2022-11-06T07:15:34;4.81;71.09
69715;HTU21D;56981;53.532;49.398;2022-11-06T07:18:05;4.82;71.87
69715;HTU21D;56981;53.532;49.398;2022-11-06T07:20:32;4.80;71.42
69715;HTU21D;56981;53.532;49.398;2022-11-06T07:22:58;4.66;70.16
69715;HTU21D;56981;53.532;49.398;2022-11-06T07:25:24;4.54;69.52
69715;HTU21D;56981;53.532;49.398;2022-11-06T07:27:50;4.39;68.78
69715;HTU21D;56981;53.532;49.398;2022-11-06T07:30:17;4.41;70.65
69715;HTU21D;56981;53.532;49.398;2022-11-06T07:32:43;4.41;68.52
69715;HTU21D;56981;53.532;49.398;2022-11-06T07:35:09;4.46;68.81
69715;HTU21D;56981;53.532;49.398;2022-11-06T07:37:35;4.54;69.11
69715;HTU21D;56981;53.532;49.398;2022-11-06T07:40:01;4.58;67.95
69715;HTU21D;56981;53.532;49.398;2022-11-06T07:42:28;4.67;68.16
69715;HTU21D;56981;53.532;49.398;2022-11-06T07:44:54;4.71;69.08
69715;HTU21D;56981;53.532;49.398;2022-11-06T07:47:21;4.76;68.07
69715;HTU21D;56981;53.532;49.398;2022-11-06T07:49:47;4.77;70.58
69715;HTU21D;56981;53.532;49.398;2022-11-06T07:52:14;4.92;69.59
69715;HTU21D;56981;53.532;49.398;2022-11-06T07:54:40;5.03;67.97
69715;HTU21D;56981;53.532;49.398;2022-11-06T07:57:06;4.98;66.46
69715;HTU21D;56981;53.532;49.398;2022-11-06T07:59:33;4.97;66.79
69715;HTU21D;56981;53.532;49.398;2022-11-06T08:01:59;4.81;67.04
69715;HTU21D;56981;53.532;49.398;2022-11-06T08:04:25;4.89;67.53
69715;HTU21D;56981;53.532;49.398;2022-11-06T08:06:51;4.87;68.30
69715;HTU21D;56981;53.532;49.398;2022-11-06T08:09:17;4.80;67.33
69715;HTU21D;56981;53.532;49.398;2022-11-06T08:11:43;4.90;68.45
69715;HTU21D;56981;53.532;49.398;2022-11-06T08:14:10;4.88;66.91
69715;HTU21D;56981;53.532;49.398;2022-11-06T08:16:36;4.95;66.17
69715;HTU21D;56981;53.532;49.398;2022-11-06T08:19:02;5.12;67.20
69715;HTU21D;56981;53.532;49.398;2022-11-06T08:21:28;5.05;65.87
69715;HTU21D;56981;53.532;49.398;2022-11-06T08:23:54;5.07;66.56
69715;HTU21D;56981;53.532;49.398;2022-11-06T08:26:20;5.00;67.20
69715;HTU21D;56981;53.532;49.398;2022-11-06T08:28:46;4.91;67.86
69715;HTU21D;56981;53.532;49.398;2022-11-06T08:31:12;4.76;66.88
69715;HTU21D;56981;53.532;49.398;2022-11-06T08:33:38;4.77;67.30
69715;HTU21D;56981;53.532;49.398;2022-11-06T08:36:06;4.73;67.07
69715;HTU21D;56981;53.532;49.398;2022-11-06T08:38:33;4.82;66.81
69715;HTU21D;56981;53.532;49.398;2022-11-06T08:41:10;4.73;66.70
69715;HTU21D;56981;53.532;49.398;2022-11-06T08:43:37;4.71;67.25
69715;HTU21D;56981;53.532;49.398;2022-11-06T08:46:05;4.66;66.15
69715;HTU21D;56981;53.532;49.398;2022-11-06T08:48:32;4.58;66.78
69715;HTU21D;56981;53.532;49.398;2022-11-06T08:50:58;4.63;69.49
69715;HTU21D;56981;53.532;49.398;2022-11-06T08:53:24;4.61;67.01
69715;HTU21D;56981;53.532;49.398;2022-11-06T08:55:50;4.62;67.95
69715;HTU21D;56981;53.532;49.398;2022-11-06T08:58:17;4.57;66.65
69715;HTU21D;56981;53.532;49.398;2022-11-06T09:00:45;4.50;67.27
69715;HTU21D;56981;53.532;49.398;2022-11-06T09:03:17;4.45;69.16
69715;HTU21D;56981;53.532;49.398;2022-11-06T09:05:50;4.48;69.03
69715;HTU21D;56981;53.532;49.398;2022-11-06T09:08:16;4.46;68.26
69715;HTU21D;56981;53.532;49.398;2022-11-06T09:10:43;4.42;68.89
69715;HTU21D;56981;53.532;49.398;2022-11-06T09:13:10;4.43;70.23
69715;HTU21D;56981;53.532;49.398;2022-11-06T09:15:37;4.37;70.64
69715;HTU21D;56981;53.532;49.398;2022-11-06T09:18:04;4.29;68.91
69715;HTU21D;56981;53.532;49.398;2022-11-06T09:20:30;4.28;70.31
69715;HTU21D;56981;53.532;49.398;2022-11-06T09:23:05;4.29;70.51
69715;HTU21D;56981;53.532;49.398;2022-11-06T09:25:32;4.32;70.05
69715;HTU21D;56981;53.532;49.398;2022-11-06T09:27:58;4.22;69.83
69715;HTU21D;56981;53.532;49.398;2022-11-06T09:30:26;4.14;70.32
69715;HTU21D;56981;53.532;49.398;2022-11-06T09:32:55;4.16;71.31
69715;HTU21D;56981;53.532;49.398;2022-11-06T09:35:23;4.18;70.10
69715;HTU21D;56981;53.532;49.398;2022-11-06T09:37:50;4.20;70.58
69715;HTU21D;56981;53.532;49.398;2022-11-06T09:40:29;4.21;70.82
69715;HTU21D;56981;53.532;49.398;2022-11-06T09:45:30;4.05;71.03
69715;HTU21D;56981;53.532;49.398;2022-11-06T09:48:16;4.09;71.64
69715;HTU21D;56981;53.532;49.398;2022-11-06T09:50:50;4.06;72.80
69715;HTU21D;56981;53.532;49.398;2022-11-06T09:53:36;4.03;73.93
69715;HTU21D;56981;53.532;49.398;2022-11-06T09:56:05;4.02;74.24
69715;HTU21D;56981;53.532;49.398;2022-11-06T09:58:36;4.00;72.70
69715;HTU21D;56981;53.532;49.398;2022-11-06T10:01:15;3.94;73.33
69715;HTU21D;56981;53.532;49.398;2022-11-06T10:03:48;3.88;73.72
69715;HTU21D;56981;53.532;49.398;2022-11-06T10:06:33;3.89;74.35
69715;HTU21D;56981;53.532;49.398;2022-11-06T10:09:02;3.95;74.60
69715;HTU21D;56981;53.532;49.398;2022-11-06T10:14:34;4.01;73.73
69715;HTU21D;56981;53.532;49.398;2022-11-06T10:20:18;3.97;74.44
69715;HTU21D;56981;53.532;49.398;2022-11-06T10:23:05;4.06;74.17
69715;HTU21D;56981;53.532;49.398;2022-11-06T10:25:44;4.09;73.67
69715;HTU21D;56981;53.532;49.398;2022-11-06T10:28:24;4.08;74.15
69715;HTU21D;56981;53.532;49.398;2022-11-06T10:34:12;4.06;73.13
69715;HTU21D;56981;53.532;49.398;2022-11-06T10:36:52;4.02;73.43
69715;HTU21D;56981;53.532;49.398;2022-11-06T10:39:22;4.12;74.46
69715;HTU21D;56981;53.532;49.398;2022-11-06T10:41:52;4.13;73.25
69715;HTU21D;56981;53.532;49.398;2022-11-06T10:44:37;4.13;72.94
69715;HTU21D;56981;53.532;49.398;2022-11-06T10:47:19;4.15;73.93
69715;HTU21D;56981;53.532;49.398;2022-11-06T10:49:55;4.20;73.79
69715;HTU21D;56981;53.532;49.398;2022-11-06T10:52:47;4.17;73.36
69715;HTU21D;56981;53.532;49.398;2022-11-06T10:58:17;4.10;72.11
69715;HTU21D;56981;53.532;49.398;2022-11-06T11:00:44;4.12;72.93
69715;HTU21D;56981;53.532;49.398;2022-11-06T11:03:29;4.18;72.34
69715;HTU21D;56981;53.532;49.398;2022-11-06T11:05:56;4.17;73.78
69715;HTU21D;56981;53.532;49.398;2022-11-06T11:11:15;3.98;73.09
69715;HTU21D;56981;53.532;49.398;2022-11-06T11:13:45;4.02;74.39
69715;HTU21D;56981;53.532;49.398;2022-11-06T11:16:47;4.07;73.86
69715;HTU21D;56981;53.532;49.398;2022-11-06T11:19:42;4.00;73.38
69715;HTU21D;56981;53.532;49.398;2022-11-06T11:22:19;3.87;73.82
69715;HTU21D;56981;53.532;49.398;2022-11-06T11:25:03;3.89;74.02
69715;HTU21D;56981;53.532;49.398;2022-11-06T11:27:35;3.85;73.21
69715;HTU21D;56981;53.532;49.398;2022-11-06T11:30:03;3.80;73.49
69715;HTU21D;56981;53.532;49.398;2022-11-06T11:32:30;3.75;74.53
69715;HTU21D;56981;53.532;49.398;2022-11-06T11:34:57;3.72;73.89
69715;HTU21D;56981;53.532;49.398;2022-11-06T11:37:32;3.63;74.36
69715;HTU21D;56981;53.532;49.398;2022-11-06T11:42:46;3.70;74.33
69715;HTU21D;56981;53.532;49.398;2022-11-06T11:45:18;3.69;74.04
69715;HTU21D;56981;53.532;49.398;2022-11-06T11:47:50;3.68;74.05
69715;HTU21D;56981;53.532;49.398;2022-11-06T11:50:23;3.72;74.63
69715;HTU21D;56981;53.532;49.398;2022-11-06T11:52:53;3.74;74.80
69715;HTU21D;56981;53.532;49.398;2022-11-06T11:55:22;3.84;75.02
69715;HTU21D;56981;53.532;49.398;2022-11-06T11:57:52;3.79;74.42
69715;HTU21D;56981;53.532;49.398;2022-11-06T12:00:20;3.77;74.18
69715;HTU21D;56981;53.532;49.398;2022-11-06T12:07:56;3.72;74.36
69715;HTU21D;56981;53.532;49.398;2022-11-06T12:10:37;3.70;73.41
69715;HTU21D;56981;53.532;49.398;2022-11-06T12:13:06;3.68;73.32
69715;HTU21D;56981;53.532;49.398;2022-11-06T12:15:46;3.67;74.22
69715;HTU21D;56981;53.532;49.398;2022-11-06T12:18:18;3.64;74.09
69715;HTU21D;56981;53.532;49.398;2022-11-06T12:21:05;3.55;73.86
69715;HTU21D;56981;53.532;49.398;2022-11-06T12:23:42;3.54;73.92
69715;HTU21D;56981;53.532;49.398;2022-11-06T12:26:25;3.57;73.91
69715;HTU21D;56981;53.532;49.398;2022-11-06T12:29:00;3.54;74.38
69715;HTU21D;56981;53.532;49.398;2022-11-06T12:31:40;3.53;74.98
69715;HTU21D;56981;53.532;49.398;2022-11-06T12:34:14;3.46;72.70
69715;HTU21D;56981;53.532;49.398;2022-11-06T12:36:56;3.43;73.64
69715;HTU21D;56981;53.532;49.398;2022-11-06T12:39:29;3.38;73.08
69715;HTU21D;56981;53.532;49.398;2022-11-06T12:42:01;3.32;72.70
69715;HTU21D;56981;53.532;49.398;2022-11-06T12:44:28;3.28;73.86
69715;HTU21D;56981;53.532;49.398;2022-11-06T12:52:40;3.23;73.21
69715;HTU21D;56981;53.532;49.398;2022-11-06T12:55:11;3.18;73.48
69715;HTU21D;56981;53.532;49.398;2022-11-06T13:06:06;3.05;72.94
69715;HTU21D;56981;53.532;49.398;2022-11-06T13:08:57;3.01;72.41
69715;HTU21D;56981;53.532;49.398;2022-11-06T13:14:10;2.97;73.37
69715;HTU21D;56981;53.532;49.398;2022-11-06T13:19:43;2.96;72.73
69715;HTU21D;56981;53.532;49.398;2022-11-06T13:27:38;3.02;73.27
69715;HTU21D;56981;53.532;49.398;2022-11-06T13:30:20;3.11;73.39
69715;HTU21D;56981;53.532;49.398;2022-11-06T13:35:27;3.05;73.00
69715;HTU21D;56981;53.532;49.398;2022-11-06T13:37:55;3.10;72.86
69715;HTU21D;56981;53.532;49.398;2022-11-06T13:40:42;3.04;72.07
69715;HTU21D;56981;53.532;49.398;2022-11-06T13:45:52;2.96;72.94
69715;HTU21D;56981;53.532;49.398;2022-11-06T13:51:32;3.00;72.83
69715;HTU21D;56981;53.532;49.398;2022-11-06T13:59:26;2.93;71.48
69715;HTU21D;56981;53.532;49.398;2022-11-06T14:02:17;2.87;72.13
69715;HTU21D;56981;53.532;49.398;2022-11-06T14:07:19;2.86;71.96
69715;HTU21D;56981;53.532;49.398;2022-11-06T14:09:46;2.91;72.85
69715;HTU21D;56981;53.532;49.398;2022-11-06T14:12:21;2.84;72.07
69715;HTU21D;56981;53.532;49.398;2022-11-06T14:15:11;2.75;72.73
69715;HTU21D;56981;53.532;49.398;2022-11-06T14:17:38;2.79;73.83
69715;HTU21D;56981;53.532;49.398;2022-11-06T14:20:25;2.85;73.12
69715;HTU21D;56981;53.532;49.398;2022-11-06T14:22:52;2.87;73.34
69715;HTU21D;56981;53.532;49.398;2022-11-06T14:32:55;2.87;74.86
69715;HTU21D;56981;53.532;49.398;2022-11-06T14:38:29;2.80;73.77
69715;HTU21D;56981;53.532;49.398;2022-11-06T14:40:56;2.79;73.96
69715;HTU21D;56981;53.532;49.398;2022-11-06T14:43:30;2.83;74.28
69715;HTU21D;56981;53.532;49.398;2022-11-06T14:46:01;2.85;74.65
69715;HTU21D;56981;53.532;49.398;2022-11-06T14:50:58;2.68;74.69
69715;HTU21D;56981;53.532;49.398;2022-11-06T14:53:30;2.67;73.99
69715;HTU21D;56981;53.532;49.398;2022-11-06T14:55:59;2.59;73.64
69715;HTU21D;56981;53.532;49.398;2022-11-06T14:58:30;2.53;74.34
69715;HTU21D;56981;53.532;49.398;2022-11-06T15:01:01;2.50;74.63
69715;HTU21D;56981;53.532;49.398;2022-11-06T15:16:39;2.50;73.99
69715;HTU21D;56981;53.532;49.398;2022-11-06T15:19:29;2.47;74.12
69715;HTU21D;56981;53.532;49.398;2022-11-06T15:22:05;2.45;73.39
69715;HTU21D;56981;53.532;49.398;2022-11-06T15:27:20;2.36;73.60
69715;HTU21D;56981;53.532;49.398;2022-11-06T15:29:51;2.40;74.09
69715;HTU21D;56981;53.532;49.398;2022-11-06T15:32:20;2.39;73.80
69715;HTU21D;56981;53.532;49.398;2022-11-06T15:35:35;2.41;73.93
69715;HTU21D;56981;53.532;49.398;2022-11-06T15:37:43;2.39;72.75
69715;HTU21D;56981;53.532;49.398;2022-11-06T15:40:25;2.37;72.65
69715;HTU21D;56981;53.532;49.398;2022-11-06T15:42:54;2.35;73.45
69715;HTU21D;56981;53.532;49.398;2022-11-06T15:45:24;2.37;73.24
69715;HTU21D;56981;53.532;49.398;2022-11-06T15:52:51;2.35;71.78
69715;HTU21D;56981;53.532;49.398;2022-11-06T15:55:29;2.38;72.19
69715;HTU21D;56981;53.532;49.398;2022-11-06T15:58:09;2.35;71.87
69715;HTU21D;56981;53.532;49.398;2022-11-06T16:00:39;2.37;72.19
69715;HTU21D;56981;53.532;49.398;2022-11-06T16:03:12;2.41;73.27
69715;HTU21D;56981;53.532;49.398;2022-11-06T16:05:39;2.38;72.28
69715;HTU21D;56981;53.532;49.398;2022-11-06T16:08:05;2.35;73.10
69715;HTU21D;56981;53.532;49.398;2022-11-06T16:10:34;2.37;73.47
69715;HTU21D;56981;53.532;49.398;2022-11-06T16:13:02;2.29;73.24
69715;HTU21D;56981;53.532;49.398;2022-11-06T16:20:57;2.40;73.74
69715;HTU21D;56981;53.532;49.398;2022-11-06T16:24:00;2.45;74.34
69715;HTU21D;56981;53.532;49.398;2022-11-06T16:28:49;2.47;72.71
69715;HTU21D;56981;53.532;49.398;2022-11-06T16:31:21;2.46;73.16
69715;HTU21D;56981;53.532;49.398;2022-11-06T16:36:20;2.43;73.09
69715;HTU21D;56981;53.532;49.398;2022-11-06T16:38:47;2.43;73.93
69715;HTU21D;56981;53.532;49.398;2022-11-06T16:41:16;2.47;73.54
69715;HTU21D;56981;53.532;49.398;2022-11-06T16:57:27;2.34;73.27
69715;HTU21D;56981;53.532;49.398;2022-11-06T16:59:57;2.37;73.25
69715;HTU21D;56981;53.532;49.398;2022-11-06T17:02:27;2.42;73.08
69715;HTU21D;56981;53.532;49.398;2022-11-06T17:05:09;2.41;72.58
69715;HTU21D;56981;53.532;49.398;2022-11-06T17:07:37;2.39;72.49
69715;HTU21D;56981;53.532;49.398;2022-11-06T17:13:16;2.37;73.22
69715;HTU21D;56981;53.532;49.398;2022-11-06T17:16:02;2.42;73.14
69715;HTU21D;56981;53.532;49.398;2022-11-06T17:18:34;2.35;72.89
69715;HTU21D;56981;53.532;49.398;2022-11-06T17:23:38;2.38;73.36
69715;HTU21D;56981;53.532;49.398;2022-11-06T17:26:09;2.36;73.12
69715;HTU21D;56981;53.532;49.398;2022-11-06T17:28:37;2.34;72.74
69715;HTU21D;56981;53.532;49.398;2022-11-06T17:31:04;2.37;72.99
69715;HTU21D;56981;53.532;49.398;2022-11-06T17:33:30;2.32;72.90
69715;HTU21D;56981;53.532;49.398;2022-11-06T17:35:56;2.29;73.28
69715;HTU21D;56981;53.532;49.398;2022-11-06T17:38:22;2.23;73.03
69715;HTU21D;56981;53.532;49.398;2022-11-06T17:40:48;2.29;73.87
69715;HTU21D;56981;53.532;49.398;2022-11-06T17:43:14;2.35;73.18
69715;HTU21D;56981;53.532;49.398;2022-11-06T17:45:42;2.39;73.96
69715;HTU21D;56981;53.532;49.398;2022-11-06T17:48:09;2.41;73.44
69715;HTU21D;56981;53.532;49.398;2022-11-06T17:50:36;2.40;72.93
69715;HTU21D;56981;53.532;49.398;2022-11-06T17:53:21;2.40;72.67
69715;HTU21D;56981;53.532;49.398;2022-11-06T17:55:47;2.37;72.73
69715;HTU21D;56981;53.532;49.398;2022-11-06T17:58:13;2.31;72.80
69715;HTU21D;56981;53.532;49.398;2022-11-06T18:00:39;2.31;72.77
69715;HTU21D;56981;53.532;49.398;2022-11-06T18:03:05;2.32;72.85
69715;HTU21D;56981;53.532;49.398;2022-11-06T18:05:32;2.30;73.00
69715;HTU21D;56981;53.532;49.398;2022-11-06T18:07:59;2.31;72.99
69715;HTU21D;56981;53.532;49.398;2022-11-06T18:10:25;2.29;72.91
69715;HTU21D;56981;53.532;49.398;2022-11-06T18:12:51;2.30;73.57
69715;HTU21D;56981;53.532;49.398;2022-11-06T18:15:17;2.30;73.47
69715;HTU21D;56981;53.532;49.398;2022-11-06T18:17:43;2.34;74.22
69715;HTU21D;56981;53.532;49.398;2022-11-06T18:20:10;2.35;73.20
69715;HTU21D;56981;53.532;49.398;2022-11-06T18:22:36;2.36;73.36
69715;HTU21D;56981;53.532;49.398;2022-11-06T18:25:02;2.37;73.18